sensor_id;sensor_type;location;lat;lon;timestamp;P1;durP1;ratioP1;P2;durP2;ratioP2
14040;SDS011;7095;51.388;6.196;2023-12-20T00:01:50;29.23;;;14.53;;
14040;SDS011;7095;51.388;6.196;2023-12-20T00:04:24;25.87;;;13.70;;
14040;SDS011;7095;51.388;6.196;2023-12-20T00:06:55;30.27;;;14.47;;
14040;SDS011;7095;51.388;6.196;2023-12-20T00:09:28;25.33;;;13.07;;
14040;SDS011;7095;51.388;6.196;2023-12-20T00:12:00;25.67;;;11.83;;
14040;SDS011;7095;51.388;6.196;2023-12-20T00:14:31;26.57;;;12.30;;
14040;SDS011;7095;51.388;6.196;2023-12-20T00:17:16;32.73;;;14.10;;
14040;SDS011;7095;51.388;6.196;2023-12-20T00:19:46;32.73;;;16.77;;
14040;SDS011;7095;51.388;6.196;2023-12-20T00:22:16;29.37;;;16.57;;
14040;SDS011;7095;51.388;6.196;2023-12-20T00:24:47;32.67;;;17.40;;
14040;SDS011;7095;51.388;6.196;2023-12-20T00:27:24;28.10;;;16.57;;
14040;SDS011;7095;51.388;6.196;2023-12-20T00:30:00;30.23;;;17.83;;
14040;SDS011;7095;51.388;6.196;2023-12-20T00:32:36;31.60;;;17.13;;
14040;SDS011;7095;51.388;6.196;2023-12-20T00:35:08;30.43;;;18.20;;
14040;SDS011;7095;51.388;6.196;2023-12-20T00:37:40;30.50;;;18.07;;
14040;SDS011;7095;51.388;6.196;2023-12-20T00:40:21;31.83;;;18.27;;
14040;SDS011;7095;51.388;6.196;2023-12-20T00:42:51;31.60;;;18.07;;
14040;SDS011;7095;51.388;6.196;2023-12-20T00:45:23;33.53;;;18.80;;
14040;SDS011;7095;51.388;6.196;2023-12-20T00:47:54;29.83;;;14.70;;
14040;SDS011;7095;51.388;6.196;2023-12-20T00:50:23;29.70;;;17.10;;
14040;SDS011;7095;51.388;6.196;2023-12-20T00:52:57;30.20;;;14.97;;
14040;SDS011;7095;51.388;6.196;2023-12-20T00:55:28;25.00;;;14.60;;
14040;SDS011;7095;51.388;6.196;2023-12-20T00:57:59;26.33;;;13.83;;
14040;SDS011;7095;51.388;6.196;2023-12-20T01:00:29;26.83;;;14.27;;
14040;SDS011;7095;51.388;6.196;2023-12-20T01:03:06;27.03;;;14.03;;
14040;SDS011;7095;51.388;6.196;2023-12-20T01:05:40;22.27;;;12.93;;
14040;SDS011;7095;51.388;6.196;2023-12-20T01:08:13;25.30;;;11.43;;
14040;SDS011;7095;51.388;6.196;2023-12-20T01:10:46;25.60;;;11.60;;
14040;SDS011;7095;51.388;6.196;2023-12-20T01:13:17;29.63;;;11.60;;
14040;SDS011;7095;51.388;6.196;2023-12-20T01:15:49;26.30;;;11.97;;
14040;SDS011;7095;51.388;6.196;2023-12-20T01:18:21;32.33;;;11.17;;
14040;SDS011;7095;51.388;6.196;2023-12-20T01:21:17;31.87;;;11.80;;
14040;SDS011;7095;51.388;6.196;2023-12-20T01:23:49;39.13;;;11.63;;
14040;SDS011;7095;51.388;6.196;2023-12-20T01:26:29;22.80;;;10.30;;
14040;SDS011;7095;51.388;6.196;2023-12-20T01:29:03;20.27;;;9.17;;
14040;SDS011;7095;51.388;6.196;2023-12-20T01:31:40;37.13;;;11.43;;
14040;SDS011;7095;51.388;6.196;2023-12-20T01:34:25;24.93;;;10.00;;
14040;SDS011;7095;51.388;6.196;2023-12-20T01:37:13;25.13;;;7.70;;
14040;SDS011;7095;51.388;6.196;2023-12-20T01:39:58;22.47;;;7.60;;
14040;SDS011;7095;51.388;6.196;2023-12-20T01:42:32;29.93;;;7.77;;
14040;SDS011;7095;51.388;6.196;2023-12-20T01:45:10;25.10;;;8.30;;
14040;SDS011;7095;51.388;6.196;2023-12-20T01:47:51;25.47;;;7.30;;
14040;SDS011;7095;51.388;6.196;2023-12-20T01:50:32;30.47;;;7.27;;
14040;SDS011;7095;51.388;6.196;2023-12-20T01:53:18;22.53;;;7.77;;
14040;SDS011;7095;51.388;6.196;2023-12-20T01:55:59;23.80;;;6.50;;
14040;SDS011;7095;51.388;6.196;2023-12-20T01:58:33;28.93;;;7.03;;
14040;SDS011;7095;51.388;6.196;2023-12-20T02:01:17;25.63;;;6.20;;
14040;SDS011;7095;51.388;6.196;2023-12-20T02:03:57;19.07;;;5.63;;
14040;SDS011;7095;51.388;6.196;2023-12-20T02:06:40;27.77;;;6.20;;
14040;SDS011;7095;51.388;6.196;2023-12-20T02:09:13;27.83;;;6.77;;
14040;SDS011;7095;51.388;6.196;2023-12-20T02:12:17;28.40;;;5.60;;
14040;SDS011;7095;51.388;6.196;2023-12-20T02:14:52;27.60;;;6.43;;
14040;SDS011;7095;51.388;6.196;2023-12-20T02:17:32;19.97;;;4.97;;
14040;SDS011;7095;51.388;6.196;2023-12-20T02:20:15;23.80;;;5.83;;
14040;SDS011;7095;51.388;6.196;2023-12-20T02:22:54;23.73;;;5.23;;
14040;SDS011;7095;51.388;6.196;2023-12-20T02:25:43;22.93;;;6.20;;
14040;SDS011;7095;51.388;6.196;2023-12-20T02:28:23;19.00;;;4.63;;
14040;SDS011;7095;51.388;6.196;2023-12-20T02:30:54;20.23;;;5.00;;
14040;SDS011;7095;51.388;6.196;2023-12-20T02:33:27;34.43;;;7.23;;
14040;SDS011;7095;51.388;6.196;2023-12-20T02:36:06;20.43;;;5.00;;
14040;SDS011;7095;51.388;6.196;2023-12-20T02:39:13;24.60;;;5.57;;
14040;SDS011;7095;51.388;6.196;2023-12-20T02:41:54;20.70;;;4.30;;
14040;SDS011;7095;51.388;6.196;2023-12-20T02:44:26;22.93;;;4.53;;
14040;SDS011;7095;51.388;6.196;2023-12-20T02:47:20;22.07;;;5.10;;
14040;SDS011;7095;51.388;6.196;2023-12-20T02:50:02;20.00;;;4.80;;
14040;SDS011;7095;51.388;6.196;2023-12-20T02:52:32;22.03;;;4.33;;
14040;SDS011;7095;51.388;6.196;2023-12-20T02:55:11;25.57;;;4.67;;
14040;SDS011;7095;51.388;6.196;2023-12-20T02:57:47;21.10;;;4.97;;
14040;SDS011;7095;51.388;6.196;2023-12-20T03:00:18;24.03;;;4.40;;
14040;SDS011;7095;51.388;6.196;2023-12-20T03:02:54;24.80;;;5.50;;
14040;SDS011;7095;51.388;6.196;2023-12-20T03:05:25;16.77;;;4.60;;
14040;SDS011;7095;51.388;6.196;2023-12-20T03:08:13;22.20;;;4.30;;
14040;SDS011;7095;51.388;6.196;2023-12-20T03:10:57;31.20;;;5.53;;
14040;SDS011;7095;51.388;6.196;2023-12-20T03:13:29;30.87;;;5.97;;
14040;SDS011;7095;51.388;6.196;2023-12-20T03:16:01;25.40;;;5.13;;
14040;SDS011;7095;51.388;6.196;2023-12-20T03:18:51;26.50;;;5.03;;
14040;SDS011;7095;51.388;6.196;2023-12-20T03:21:28;24.07;;;5.70;;
14040;SDS011;7095;51.388;6.196;2023-12-20T03:24:04;24.87;;;5.40;;
14040;SDS011;7095;51.388;6.196;2023-12-20T03:26:55;18.80;;;5.00;;
14040;SDS011;7095;51.388;6.196;2023-12-20T03:29:39;22.43;;;4.43;;
14040;SDS011;7095;51.388;6.196;2023-12-20T03:32:10;22.03;;;4.80;;
14040;SDS011;7095;51.388;6.196;2023-12-20T03:34:55;23.50;;;4.83;;
14040;SDS011;7095;51.388;6.196;2023-12-20T03:37:33;29.00;;;5.33;;
14040;SDS011;7095;51.388;6.196;2023-12-20T03:40:09;19.27;;;5.47;;
14040;SDS011;7095;51.388;6.196;2023-12-20T03:42:44;25.80;;;5.37;;
14040;SDS011;7095;51.388;6.196;2023-12-20T03:45:18;30.87;;;5.87;;
14040;SDS011;7095;51.388;6.196;2023-12-20T03:48:02;23.50;;;6.10;;
14040;SDS011;7095;51.388;6.196;2023-12-20T03:50:37;23.23;;;5.27;;
14040;SDS011;7095;51.388;6.196;2023-12-20T03:53:28;24.53;;;5.67;;
14040;SDS011;7095;51.388;6.196;2023-12-20T03:56:09;33.17;;;5.43;;
14040;SDS011;7095;51.388;6.196;2023-12-20T03:58:57;22.53;;;4.93;;
14040;SDS011;7095;51.388;6.196;2023-12-20T04:01:44;24.47;;;6.50;;
14040;SDS011;7095;51.388;6.196;2023-12-20T04:04:35;28.80;;;7.03;;
14040;SDS011;7095;51.388;6.196;2023-12-20T04:11:54;26.03;;;6.77;;
14040;SDS011;7095;51.388;6.196;2023-12-20T04:14:41;29.03;;;7.00;;
14040;SDS011;7095;51.388;6.196;2023-12-20T04:17:15;23.90;;;6.97;;
14040;SDS011;7095;51.388;6.196;2023-12-20T04:20:01;22.03;;;7.37;;
14040;SDS011;7095;51.388;6.196;2023-12-20T04:22:49;26.70;;;7.90;;
14040;SDS011;7095;51.388;6.196;2023-12-20T04:25:24;27.23;;;8.00;;
14040;SDS011;7095;51.388;6.196;2023-12-20T04:27:59;25.23;;;8.33;;
14040;SDS011;7095;51.388;6.196;2023-12-20T04:30:38;30.87;;;8.07;;
14040;SDS011;7095;51.388;6.196;2023-12-20T04:33:16;26.53;;;8.13;;
14040;SDS011;7095;51.388;6.196;2023-12-20T04:36:00;32.63;;;8.43;;
14040;SDS011;7095;51.388;6.196;2023-12-20T04:38:44;28.77;;;8.23;;
14040;SDS011;7095;51.388;6.196;2023-12-20T04:41:41;29.97;;;8.30;;
14040;SDS011;7095;51.388;6.196;2023-12-20T04:44:23;29.77;;;8.07;;
14040;SDS011;7095;51.388;6.196;2023-12-20T04:47:08;38.20;;;8.73;;
14040;SDS011;7095;51.388;6.196;2023-12-20T04:49:59;28.13;;;8.20;;
14040;SDS011;7095;51.388;6.196;2023-12-20T04:52:30;35.97;;;8.67;;
14040;SDS011;7095;51.388;6.196;2023-12-20T04:55:03;30.37;;;8.10;;
14040;SDS011;7095;51.388;6.196;2023-12-20T04:57:39;32.53;;;8.50;;
14040;SDS011;7095;51.388;6.196;2023-12-20T05:00:32;35.30;;;7.87;;
14040;SDS011;7095;51.388;6.196;2023-12-20T05:03:19;37.70;;;8.50;;
14040;SDS011;7095;51.388;6.196;2023-12-20T05:05:52;26.27;;;8.93;;
14040;SDS011;7095;51.388;6.196;2023-12-20T05:08:41;24.37;;;8.30;;
14040;SDS011;7095;51.388;6.196;2023-12-20T05:11:22;32.63;;;7.97;;
14040;SDS011;7095;51.388;6.196;2023-12-20T05:14:19;26.00;;;7.50;;
14040;SDS011;7095;51.388;6.196;2023-12-20T05:16:51;33.50;;;8.33;;
14040;SDS011;7095;51.388;6.196;2023-12-20T05:19:22;28.20;;;7.63;;
14040;SDS011;7095;51.388;6.196;2023-12-20T05:21:54;28.87;;;7.93;;
14040;SDS011;7095;51.388;6.196;2023-12-20T05:24:40;33.13;;;8.57;;
14040;SDS011;7095;51.388;6.196;2023-12-20T05:27:10;25.47;;;7.53;;
14040;SDS011;7095;51.388;6.196;2023-12-20T05:29:58;22.67;;;8.20;;
14040;SDS011;7095;51.388;6.196;2023-12-20T05:32:29;27.20;;;7.67;;
14040;SDS011;7095;51.388;6.196;2023-12-20T05:35:09;29.10;;;8.30;;
14040;SDS011;7095;51.388;6.196;2023-12-20T05:37:51;29.60;;;7.83;;
14040;SDS011;7095;51.388;6.196;2023-12-20T05:40:45;27.93;;;8.87;;
14040;SDS011;7095;51.388;6.196;2023-12-20T05:43:39;32.67;;;7.87;;
14040;SDS011;7095;51.388;6.196;2023-12-20T05:46:15;30.73;;;9.87;;
14040;SDS011;7095;51.388;6.196;2023-12-20T05:48:52;21.93;;;7.77;;
14040;SDS011;7095;51.388;6.196;2023-12-20T05:56:27;28.53;;;9.43;;
14040;SDS011;7095;51.388;6.196;2023-12-20T05:59:15;30.03;;;8.13;;
14040;SDS011;7095;51.388;6.196;2023-12-20T06:02:11;27.57;;;8.43;;
14040;SDS011;7095;51.388;6.196;2023-12-20T06:05:01;34.10;;;8.23;;
14040;SDS011;7095;51.388;6.196;2023-12-20T06:07:30;24.60;;;7.40;;
14040;SDS011;7095;51.388;6.196;2023-12-20T06:10:06;25.83;;;7.70;;
14040;SDS011;7095;51.388;6.196;2023-12-20T06:12:50;24.83;;;7.80;;
14040;SDS011;7095;51.388;6.196;2023-12-20T06:15:36;25.77;;;7.40;;
14040;SDS011;7095;51.388;6.196;2023-12-20T06:18:06;22.83;;;6.87;;
14040;SDS011;7095;51.388;6.196;2023-12-20T06:23:51;28.77;;;6.60;;
14040;SDS011;7095;51.388;6.196;2023-12-20T06:26:35;30.73;;;7.63;;
14040;SDS011;7095;51.388;6.196;2023-12-20T06:29:21;23.73;;;7.77;;
14040;SDS011;7095;51.388;6.196;2023-12-20T06:31:56;31.93;;;7.53;;
14040;SDS011;7095;51.388;6.196;2023-12-20T06:34:32;27.87;;;7.10;;
14040;SDS011;7095;51.388;6.196;2023-12-20T06:37:10;27.40;;;6.47;;
14040;SDS011;7095;51.388;6.196;2023-12-20T06:39:44;23.03;;;6.97;;
14040;SDS011;7095;51.388;6.196;2023-12-20T06:42:23;36.30;;;7.77;;
14040;SDS011;7095;51.388;6.196;2023-12-20T06:45:14;24.87;;;6.53;;
14040;SDS011;7095;51.388;6.196;2023-12-20T06:47:46;22.67;;;6.37;;
14040;SDS011;7095;51.388;6.196;2023-12-20T06:50:17;35.93;;;7.17;;
14040;SDS011;7095;51.388;6.196;2023-12-20T06:52:48;33.57;;;8.10;;
14040;SDS011;7095;51.388;6.196;2023-12-20T06:55:22;41.70;;;8.03;;
14040;SDS011;7095;51.388;6.196;2023-12-20T06:57:55;35.20;;;10.47;;
14040;SDS011;7095;51.388;6.196;2023-12-20T07:00:42;35.60;;;8.10;;
14040;SDS011;7095;51.388;6.196;2023-12-20T07:03:15;25.63;;;6.67;;
14040;SDS011;7095;51.388;6.196;2023-12-20T07:06:14;26.40;;;6.80;;
14040;SDS011;7095;51.388;6.196;2023-12-20T07:08:48;25.23;;;6.10;;
14040;SDS011;7095;51.388;6.196;2023-12-20T07:11:17;28.27;;;6.83;;
14040;SDS011;7095;51.388;6.196;2023-12-20T07:14:03;27.07;;;7.57;;
14040;SDS011;7095;51.388;6.196;2023-12-20T07:16:38;25.67;;;7.20;;
14040;SDS011;7095;51.388;6.196;2023-12-20T07:19:13;20.70;;;6.27;;
14040;SDS011;7095;51.388;6.196;2023-12-20T07:21:47;28.53;;;6.57;;
14040;SDS011;7095;51.388;6.196;2023-12-20T07:24:23;21.60;;;6.27;;
14040;SDS011;7095;51.388;6.196;2023-12-20T07:27:35;29.23;;;7.93;;
14040;SDS011;7095;51.388;6.196;2023-12-20T07:30:39;33.90;;;7.60;;
14040;SDS011;7095;51.388;6.196;2023-12-20T07:33:13;28.17;;;7.70;;
14040;SDS011;7095;51.388;6.196;2023-12-20T07:35:53;30.80;;;7.57;;
14040;SDS011;7095;51.388;6.196;2023-12-20T07:38:33;27.47;;;7.47;;
14040;SDS011;7095;51.388;6.196;2023-12-20T07:41:37;35.60;;;7.10;;
14040;SDS011;7095;51.388;6.196;2023-12-20T07:44:48;28.07;;;6.63;;
14040;SDS011;7095;51.388;6.196;2023-12-20T07:47:47;29.43;;;6.70;;
14040;SDS011;7095;51.388;6.196;2023-12-20T07:51:02;30.17;;;6.17;;
14040;SDS011;7095;51.388;6.196;2023-12-20T08:11:39;20.07;;;5.90;;
14040;SDS011;7095;51.388;6.196;2023-12-20T08:15:37;25.40;;;5.87;;
14040;SDS011;7095;51.388;6.196;2023-12-20T08:19:21;37.20;;;8.03;;
14040;SDS011;7095;51.388;6.196;2023-12-20T08:22:17;19.90;;;5.43;;
14040;SDS011;7095;51.388;6.196;2023-12-20T08:25:05;23.23;;;6.60;;
14040;SDS011;7095;51.388;6.196;2023-12-20T08:36:14;24.47;;;6.63;;
14040;SDS011;7095;51.388;6.196;2023-12-20T08:38:54;35.43;;;6.00;;
14040;SDS011;7095;51.388;6.196;2023-12-20T08:41:37;32.67;;;6.60;;
14040;SDS011;7095;51.388;6.196;2023-12-20T08:44:34;26.13;;;6.00;;
14040;SDS011;7095;51.388;6.196;2023-12-20T08:47:32;24.80;;;6.07;;
14040;SDS011;7095;51.388;6.196;2023-12-20T08:50:22;23.83;;;6.97;;
14040;SDS011;7095;51.388;6.196;2023-12-20T08:59:33;20.47;;;5.97;;
14040;SDS011;7095;51.388;6.196;2023-12-20T09:05:07;20.27;;;6.73;;
14040;SDS011;7095;51.388;6.196;2023-12-20T09:11:23;14.43;;;5.10;;
14040;SDS011;7095;51.388;6.196;2023-12-20T09:17:11;24.97;;;6.40;;
14040;SDS011;7095;51.388;6.196;2023-12-20T09:20:47;29.47;;;6.20;;
14040;SDS011;7095;51.388;6.196;2023-12-20T09:29:09;25.07;;;6.63;;
14040;SDS011;7095;51.388;6.196;2023-12-20T09:32:12;26.60;;;6.37;;
14040;SDS011;7095;51.388;6.196;2023-12-20T09:39:08;24.43;;;6.10;;
14040;SDS011;7095;51.388;6.196;2023-12-20T09:45:20;25.93;;;6.43;;
14040;SDS011;7095;51.388;6.196;2023-12-20T09:48:19;21.07;;;5.70;;
14040;SDS011;7095;51.388;6.196;2023-12-20T09:51:35;33.03;;;7.37;;
14040;SDS011;7095;51.388;6.196;2023-12-20T09:54:17;20.13;;;6.33;;
14040;SDS011;7095;51.388;6.196;2023-12-20T09:56:54;27.20;;;6.43;;
14040;SDS011;7095;51.388;6.196;2023-12-20T10:00:19;20.73;;;6.20;;
14040;SDS011;7095;51.388;6.196;2023-12-20T10:03:01;33.60;;;6.90;;
14040;SDS011;7095;51.388;6.196;2023-12-20T10:05:57;21.50;;;5.90;;
14040;SDS011;7095;51.388;6.196;2023-12-20T10:08:28;23.87;;;5.67;;
14040;SDS011;7095;51.388;6.196;2023-12-20T10:11:09;27.43;;;5.00;;
14040;SDS011;7095;51.388;6.196;2023-12-20T10:14:14;20.67;;;5.73;;
14040;SDS011;7095;51.388;6.196;2023-12-20T10:17:03;19.33;;;7.17;;
14040;SDS011;7095;51.388;6.196;2023-12-20T10:19:42;22.20;;;5.20;;
14040;SDS011;7095;51.388;6.196;2023-12-20T10:22:17;22.07;;;6.23;;
14040;SDS011;7095;51.388;6.196;2023-12-20T10:24:51;24.27;;;5.23;;
14040;SDS011;7095;51.388;6.196;2023-12-20T10:27:27;24.93;;;6.13;;
14040;SDS011;7095;51.388;6.196;2023-12-20T10:30:06;23.40;;;6.07;;
14040;SDS011;7095;51.388;6.196;2023-12-20T10:32:41;21.87;;;5.57;;
14040;SDS011;7095;51.388;6.196;2023-12-20T10:35:14;20.90;;;4.87;;
14040;SDS011;7095;51.388;6.196;2023-12-20T10:37:48;28.50;;;6.73;;
14040;SDS011;7095;51.388;6.196;2023-12-20T10:40:40;21.37;;;6.07;;
14040;SDS011;7095;51.388;6.196;2023-12-20T10:43:15;20.63;;;5.33;;
14040;SDS011;7095;51.388;6.196;2023-12-20T10:45:49;21.17;;;6.07;;
14040;SDS011;7095;51.388;6.196;2023-12-20T10:48:47;23.70;;;5.77;;
14040;SDS011;7095;51.388;6.196;2023-12-20T10:51:28;18.87;;;5.17;;
14040;SDS011;7095;51.388;6.196;2023-12-20T10:54:28;23.87;;;6.07;;
14040;SDS011;7095;51.388;6.196;2023-12-20T10:57:16;23.30;;;5.33;;
14040;SDS011;7095;51.388;6.196;2023-12-20T11:00:03;21.40;;;5.77;;
14040;SDS011;7095;51.388;6.196;2023-12-20T11:02:51;20.40;;;5.97;;
14040;SDS011;7095;51.388;6.196;2023-12-20T11:05:32;24.47;;;6.10;;
14040;SDS011;7095;51.388;6.196;2023-12-20T11:08:43;21.00;;;5.63;;
14040;SDS011;7095;51.388;6.196;2023-12-20T11:11:48;29.07;;;6.80;;
14040;SDS011;7095;51.388;6.196;2023-12-20T11:14:24;20.53;;;6.33;;
14040;SDS011;7095;51.388;6.196;2023-12-20T11:17:08;19.70;;;5.90;;
14040;SDS011;7095;51.388;6.196;2023-12-20T11:24:44;22.20;;;5.83;;
14040;SDS011;7095;51.388;6.196;2023-12-20T11:27:22;17.77;;;4.97;;
14040;SDS011;7095;51.388;6.196;2023-12-20T11:29:58;28.23;;;7.33;;
14040;SDS011;7095;51.388;6.196;2023-12-20T11:32:55;16.50;;;5.33;;
14040;SDS011;7095;51.388;6.196;2023-12-20T11:35:29;28.90;;;6.27;;
14040;SDS011;7095;51.388;6.196;2023-12-20T11:38:08;18.83;;;6.27;;
14040;SDS011;7095;51.388;6.196;2023-12-20T11:40:48;25.77;;;5.47;;
14040;SDS011;7095;51.388;6.196;2023-12-20T11:43:34;19.13;;;5.07;;
14040;SDS011;7095;51.388;6.196;2023-12-20T11:46:17;26.03;;;6.03;;
14040;SDS011;7095;51.388;6.196;2023-12-20T11:48:59;22.80;;;5.93;;
14040;SDS011;7095;51.388;6.196;2023-12-20T11:51:41;16.23;;;5.37;;
14040;SDS011;7095;51.388;6.196;2023-12-20T11:54:16;23.90;;;5.20;;
14040;SDS011;7095;51.388;6.196;2023-12-20T11:56:50;18.47;;;5.47;;
14040;SDS011;7095;51.388;6.196;2023-12-20T11:59:47;14.20;;;4.93;;
14040;SDS011;7095;51.388;6.196;2023-12-20T12:02:35;17.57;;;4.97;;
14040;SDS011;7095;51.388;6.196;2023-12-20T12:05:08;19.87;;;6.13;;
14040;SDS011;7095;51.388;6.196;2023-12-20T12:07:41;22.80;;;5.73;;
14040;SDS011;7095;51.388;6.196;2023-12-20T12:10:26;22.57;;;6.03;;
14040;SDS011;7095;51.388;6.196;2023-12-20T12:13:34;25.50;;;5.90;;
14040;SDS011;7095;51.388;6.196;2023-12-20T12:16:24;25.07;;;6.53;;
14040;SDS011;7095;51.388;6.196;2023-12-20T12:21:47;15.53;;;6.10;;
14040;SDS011;7095;51.388;6.196;2023-12-20T12:24:30;22.73;;;6.40;;
14040;SDS011;7095;51.388;6.196;2023-12-20T12:30:05;30.90;;;7.83;;
14040;SDS011;7095;51.388;6.196;2023-12-20T12:32:51;27.77;;;7.47;;
14040;SDS011;7095;51.388;6.196;2023-12-20T12:35:36;24.07;;;7.63;;
14040;SDS011;7095;51.388;6.196;2023-12-20T12:38:41;31.07;;;8.73;;
14040;SDS011;7095;51.388;6.196;2023-12-20T12:41:07;29.17;;;9.37;;
14040;SDS011;7095;51.388;6.196;2023-12-20T12:43:51;28.73;;;7.83;;
14040;SDS011;7095;51.388;6.196;2023-12-20T12:46:37;20.80;;;8.87;;
14040;SDS011;7095;51.388;6.196;2023-12-20T12:49:10;21.07;;;7.17;;
14040;SDS011;7095;51.388;6.196;2023-12-20T12:51:39;19.57;;;6.70;;
14040;SDS011;7095;51.388;6.196;2023-12-20T12:54:17;25.13;;;7.90;;
14040;SDS011;7095;51.388;6.196;2023-12-20T12:56:52;25.00;;;8.03;;
14040;SDS011;7095;51.388;6.196;2023-12-20T12:59:21;20.23;;;6.90;;
14040;SDS011;7095;51.388;6.196;2023-12-20T13:01:51;25.37;;;8.07;;
14040;SDS011;7095;51.388;6.196;2023-12-20T13:04:22;23.47;;;7.53;;
14040;SDS011;7095;51.388;6.196;2023-12-20T13:07:02;27.53;;;9.17;;
14040;SDS011;7095;51.388;6.196;2023-12-20T13:09:35;22.37;;;7.33;;
14040;SDS011;7095;51.388;6.196;2023-12-20T13:12:08;21.17;;;8.17;;
14040;SDS011;7095;51.388;6.196;2023-12-20T13:14:44;32.03;;;9.63;;
14040;SDS011;7095;51.388;6.196;2023-12-20T13:17:18;20.17;;;8.20;;
14040;SDS011;7095;51.388;6.196;2023-12-20T13:19:53;25.43;;;8.27;;
14040;SDS011;7095;51.388;6.196;2023-12-20T13:22:23;23.13;;;9.47;;
14040;SDS011;7095;51.388;6.196;2023-12-20T13:24:56;27.43;;;10.07;;
14040;SDS011;7095;51.388;6.196;2023-12-20T13:27:34;36.07;;;9.03;;
14040;SDS011;7095;51.388;6.196;2023-12-20T13:30:12;30.63;;;9.70;;
14040;SDS011;7095;51.388;6.196;2023-12-20T13:32:44;27.20;;;9.93;;
14040;SDS011;7095;51.388;6.196;2023-12-20T13:35:33;26.60;;;9.17;;
14040;SDS011;7095;51.388;6.196;2023-12-20T13:38:09;25.07;;;8.30;;
14040;SDS011;7095;51.388;6.196;2023-12-20T13:40:51;25.13;;;8.93;;
14040;SDS011;7095;51.388;6.196;2023-12-20T13:43:44;28.63;;;8.53;;
14040;SDS011;7095;51.388;6.196;2023-12-20T13:46:18;29.23;;;7.40;;
14040;SDS011;7095;51.388;6.196;2023-12-20T13:49:07;25.10;;;8.60;;
14040;SDS011;7095;51.388;6.196;2023-12-20T13:51:57;28.47;;;8.20;;
14040;SDS011;7095;51.388;6.196;2023-12-20T13:54:31;29.03;;;8.43;;
14040;SDS011;7095;51.388;6.196;2023-12-20T13:57:05;19.80;;;7.47;;
14040;SDS011;7095;51.388;6.196;2023-12-20T13:59:55;23.30;;;7.77;;
14040;SDS011;7095;51.388;6.196;2023-12-20T14:02:39;23.23;;;8.00;;
14040;SDS011;7095;51.388;6.196;2023-12-20T14:05:18;25.30;;;8.33;;
14040;SDS011;7095;51.388;6.196;2023-12-20T14:07:57;27.83;;;8.03;;
14040;SDS011;7095;51.388;6.196;2023-12-20T14:10:28;21.93;;;7.93;;
14040;SDS011;7095;51.388;6.196;2023-12-20T14:13:06;16.43;;;7.47;;
14040;SDS011;7095;51.388;6.196;2023-12-20T14:15:46;22.53;;;7.53;;
14040;SDS011;7095;51.388;6.196;2023-12-20T14:18:21;24.73;;;7.13;;
14040;SDS011;7095;51.388;6.196;2023-12-20T14:20:53;27.50;;;7.73;;
14040;SDS011;7095;51.388;6.196;2023-12-20T14:23:27;18.70;;;6.57;;
14040;SDS011;7095;51.388;6.196;2023-12-20T14:25:58;21.57;;;6.77;;
14040;SDS011;7095;51.388;6.196;2023-12-20T14:28:32;23.63;;;7.97;;
14040;SDS011;7095;51.388;6.196;2023-12-20T14:31:07;21.77;;;8.17;;
14040;SDS011;7095;51.388;6.196;2023-12-20T14:33:55;23.00;;;7.67;;
14040;SDS011;7095;51.388;6.196;2023-12-20T14:36:38;17.93;;;8.77;;
14040;SDS011;7095;51.388;6.196;2023-12-20T14:39:25;20.40;;;8.37;;
14040;SDS011;7095;51.388;6.196;2023-12-20T14:42:05;22.73;;;7.90;;
14040;SDS011;7095;51.388;6.196;2023-12-20T14:45:01;23.90;;;7.93;;
14040;SDS011;7095;51.388;6.196;2023-12-20T14:48:01;34.43;;;8.80;;
14040;SDS011;7095;51.388;6.196;2023-12-20T14:50:58;24.40;;;8.07;;
14040;SDS011;7095;51.388;6.196;2023-12-20T14:53:27;21.37;;;7.70;;
14040;SDS011;7095;51.388;6.196;2023-12-20T14:55:56;24.73;;;8.37;;
14040;SDS011;7095;51.388;6.196;2023-12-20T14:58:24;25.30;;;8.57;;
14040;SDS011;7095;51.388;6.196;2023-12-20T15:00:53;21.83;;;7.17;;
14040;SDS011;7095;51.388;6.196;2023-12-20T15:03:22;24.40;;;8.40;;
14040;SDS011;7095;51.388;6.196;2023-12-20T15:05:51;20.90;;;8.53;;
14040;SDS011;7095;51.388;6.196;2023-12-20T15:08:22;25.53;;;8.27;;
14040;SDS011;7095;51.388;6.196;2023-12-20T15:10:50;26.50;;;8.00;;
14040;SDS011;7095;51.388;6.196;2023-12-20T15:13:19;23.03;;;8.00;;
14040;SDS011;7095;51.388;6.196;2023-12-20T15:15:47;24.63;;;7.77;;
14040;SDS011;7095;51.388;6.196;2023-12-20T15:18:16;18.57;;;8.03;;
14040;SDS011;7095;51.388;6.196;2023-12-20T15:20:45;25.00;;;8.00;;
14040;SDS011;7095;51.388;6.196;2023-12-20T15:23:14;24.73;;;8.37;;
14040;SDS011;7095;51.388;6.196;2023-12-20T15:25:45;28.37;;;7.97;;
14040;SDS011;7095;51.388;6.196;2023-12-20T15:28:14;23.03;;;8.07;;
14040;SDS011;7095;51.388;6.196;2023-12-20T15:30:43;17.83;;;7.00;;
14040;SDS011;7095;51.388;6.196;2023-12-20T15:33:12;22.60;;;7.23;;
14040;SDS011;7095;51.388;6.196;2023-12-20T15:35:41;16.20;;;6.50;;
14040;SDS011;7095;51.388;6.196;2023-12-20T15:38:09;22.97;;;7.67;;
14040;SDS011;7095;51.388;6.196;2023-12-20T15:40:38;18.43;;;7.27;;
14040;SDS011;7095;51.388;6.196;2023-12-20T15:43:08;21.07;;;7.43;;
14040;SDS011;7095;51.388;6.196;2023-12-20T15:45:37;25.07;;;7.63;;
14040;SDS011;7095;51.388;6.196;2023-12-20T15:48:06;31.47;;;8.67;;
14040;SDS011;7095;51.388;6.196;2023-12-20T15:50:36;27.70;;;10.20;;
14040;SDS011;7095;51.388;6.196;2023-12-20T15:53:05;27.53;;;8.97;;
14040;SDS011;7095;51.388;6.196;2023-12-20T15:55:33;31.03;;;9.40;;
14040;SDS011;7095;51.388;6.196;2023-12-20T15:58:02;22.93;;;8.40;;
14040;SDS011;7095;51.388;6.196;2023-12-20T16:00:33;23.77;;;7.20;;
14040;SDS011;7095;51.388;6.196;2023-12-20T16:03:01;27.20;;;7.80;;
14040;SDS011;7095;51.388;6.196;2023-12-20T16:05:30;25.87;;;7.57;;
14040;SDS011;7095;51.388;6.196;2023-12-20T16:07:59;27.23;;;7.27;;
14040;SDS011;7095;51.388;6.196;2023-12-20T16:10:28;28.07;;;7.53;;
14040;SDS011;7095;51.388;6.196;2023-12-20T16:12:56;30.10;;;7.43;;
14040;SDS011;7095;51.388;6.196;2023-12-20T16:15:25;27.53;;;7.17;;
14040;SDS011;7095;51.388;6.196;2023-12-20T16:17:55;17.50;;;7.17;;
14040;SDS011;7095;51.388;6.196;2023-12-20T16:20:24;23.87;;;7.33;;
14040;SDS011;7095;51.388;6.196;2023-12-20T16:22:52;24.17;;;9.67;;
14040;SDS011;7095;51.388;6.196;2023-12-20T16:25:22;22.90;;;7.27;;
14040;SDS011;7095;51.388;6.196;2023-12-20T16:27:50;29.20;;;8.00;;
14040;SDS011;7095;51.388;6.196;2023-12-20T16:30:19;26.53;;;7.87;;
14040;SDS011;7095;51.388;6.196;2023-12-20T16:32:48;24.00;;;7.43;;
14040;SDS011;7095;51.388;6.196;2023-12-20T16:35:18;25.87;;;7.53;;
14040;SDS011;7095;51.388;6.196;2023-12-20T16:37:47;20.83;;;6.97;;
14040;SDS011;7095;51.388;6.196;2023-12-20T16:40:16;22.97;;;7.33;;
14040;SDS011;7095;51.388;6.196;2023-12-20T16:42:50;20.37;;;8.53;;
14040;SDS011;7095;51.388;6.196;2023-12-20T16:45:20;21.03;;;7.77;;
14040;SDS011;7095;51.388;6.196;2023-12-20T16:47:48;20.63;;;8.40;;
14040;SDS011;7095;51.388;6.196;2023-12-20T16:50:18;21.03;;;7.90;;
14040;SDS011;7095;51.388;6.196;2023-12-20T16:52:47;26.30;;;8.00;;
14040;SDS011;7095;51.388;6.196;2023-12-20T16:55:18;23.07;;;7.40;;
14040;SDS011;7095;51.388;6.196;2023-12-20T16:57:47;16.97;;;7.20;;
14040;SDS011;7095;51.388;6.196;2023-12-20T17:00:16;25.50;;;8.70;;
14040;SDS011;7095;51.388;6.196;2023-12-20T17:02:45;26.43;;;7.87;;
14040;SDS011;7095;51.388;6.196;2023-12-20T17:05:14;20.93;;;7.63;;
14040;SDS011;7095;51.388;6.196;2023-12-20T17:07:44;30.83;;;8.27;;
14040;SDS011;7095;51.388;6.196;2023-12-20T17:10:13;24.33;;;8.70;;
14040;SDS011;7095;51.388;6.196;2023-12-20T17:12:42;20.73;;;8.00;;
14040;SDS011;7095;51.388;6.196;2023-12-20T17:15:10;21.87;;;8.50;;
14040;SDS011;7095;51.388;6.196;2023-12-20T17:17:39;31.57;;;9.20;;
14040;SDS011;7095;51.388;6.196;2023-12-20T17:20:10;23.93;;;8.27;;